createdAt,value
2023-03-05T00:00:05.944Z,0.57
2023-03-05T00:01:05.919Z,0.57
2023-03-05T00:02:06.937Z,0.57
2023-03-05T00:03:05.875Z,0.57
2023-03-05T00:04:05.870Z,0.57
2023-03-05T00:05:05.848Z,0.58
2023-03-05T00:06:05.823Z,0.58
2023-03-05T00:07:05.800Z,0.58
2023-03-05T00:08:05.785Z,0.58
2023-03-05T00:09:05.771Z,0.58
2023-03-05T00:10:05.775Z,0.58
2023-03-05T00:11:05.734Z,0.58
2023-03-05T00:12:05.713Z,0.57
2023-03-05T00:13:05.696Z,0.57
2023-03-05T00:14:05.690Z,0.58
2023-03-05T00:15:05.682Z,0.58
2023-03-05T00:16:05.710Z,0.57
2023-03-05T00:17:05.638Z,0.58
2023-03-05T00:18:05.654Z,0.57
2023-03-05T00:19:05.606Z,0.57
2023-03-05T00:20:05.609Z,0.58
2023-03-05T00:21:05.570Z,0.57
2023-03-05T00:22:05.561Z,0.58
2023-03-05T00:23:05.528Z,0.58
2023-03-05T00:24:05.510Z,0.58
2023-03-05T00:25:05.501Z,0.57
2023-03-05T00:26:05.477Z,0.58
2023-03-05T00:27:05.457Z,0.56
2023-03-05T00:28:05.450Z,0.58
2023-03-05T00:29:05.424Z,0.58
2023-03-05T00:30:05.418Z,0.58
2023-03-05T00:31:05.424Z,0.58
2023-03-05T00:32:05.430Z,0.58
2023-03-05T00:33:05.346Z,0.58
2023-03-05T00:34:05.340Z,0.57
2023-03-05T00:35:05.314Z,0.56
2023-03-05T00:36:05.388Z,0.58
2023-03-05T00:37:05.287Z,0.58
2023-03-05T00:38:05.268Z,0.57
2023-03-05T00:39:05.284Z,0.57
2023-03-05T00:40:05.254Z,0.58
2023-03-05T00:41:05.220Z,0.57
2023-03-05T00:42:05.198Z,0.58
2023-03-05T00:43:05.186Z,0.57
2023-03-05T00:44:05.166Z,0.57
2023-03-05T00:45:05.154Z,0.57
2023-03-05T00:46:05.149Z,0.57
2023-03-05T00:47:05.108Z,0.57
2023-03-05T00:48:05.096Z,0.58
2023-03-05T00:49:05.095Z,0.58
2023-03-05T00:50:05.068Z,0.57
2023-03-05T00:51:05.051Z,0.58
2023-03-05T00:52:05.032Z,0.58
2023-03-05T00:53:05.011Z,0.58
2023-03-05T00:54:05.000Z,0.58
2023-03-05T00:55:04.969Z,0.56
2023-03-05T00:56:04.984Z,0.59
2023-03-05T00:57:04.936Z,0.57
2023-03-05T00:58:04.931Z,0.57
2023-03-05T00:59:04.902Z,0.58
2023-03-05T01:00:04.890Z,0.57
2023-03-05T01:01:04.873Z,0.58
2023-03-05T01:02:04.874Z,0.58
2023-03-05T01:03:04.817Z,0.58
2023-03-05T01:04:04.812Z,0.58
2023-03-05T01:05:04.837Z,0.58
2023-03-05T01:06:04.770Z,0.58
2023-03-05T01:07:04.749Z,0.58
2023-03-05T01:08:04.735Z,0.57
2023-03-05T01:09:04.700Z,0.58
2023-03-05T01:10:04.689Z,0.59
2023-03-05T01:11:04.689Z,0.57
2023-03-05T01:12:04.682Z,0.58
2023-03-05T01:13:04.650Z,0.58
2023-03-05T01:14:04.610Z,0.58
2023-03-05T01:15:04.595Z,0.58
2023-03-05T01:16:04.627Z,0.58
2023-03-05T01:17:04.573Z,0.59
2023-03-05T01:18:04.534Z,0.58
2023-03-05T01:19:04.520Z,0.59
2023-03-05T01:20:04.492Z,0.57
2023-03-05T01:21:04.492Z,0.57
2023-03-05T01:22:04.481Z,0.58
2023-03-05T01:23:04.467Z,0.58
2023-03-05T01:24:04.448Z,0.58
2023-03-05T01:25:04.427Z,0.58
2023-03-05T01:26:04.438Z,0.57
2023-03-05T01:27:04.423Z,0.58
2023-03-05T01:28:04.408Z,0.57
2023-03-05T01:29:04.389Z,0.58
2023-03-05T01:30:04.386Z,0.59
2023-03-05T01:31:04.402Z,0.58
2023-03-05T01:32:04.342Z,0.58
2023-03-05T01:33:04.309Z,0.58
2023-03-05T01:34:04.309Z,0.58
2023-03-05T01:35:04.287Z,0.59
2023-03-05T01:36:04.257Z,0.58
2023-03-05T01:37:04.262Z,0.58
2023-03-05T01:38:04.226Z,0.57
2023-03-05T01:39:04.217Z,0.57
2023-03-05T01:40:04.196Z,0.58
2023-03-05T01:41:04.183Z,0.57
2023-03-05T01:42:04.182Z,0.57
2023-03-05T01:43:04.152Z,0.58
2023-03-05T01:44:04.147Z,0.58
2023-03-05T01:45:04.117Z,0.58
2023-03-05T01:46:04.138Z,0.58
2023-03-05T01:47:04.070Z,0.59
2023-03-05T01:48:04.049Z,0.58
2023-03-05T01:49:04.041Z,0.58
2023-03-05T01:50:04.019Z,0.58
2023-03-05T01:51:04.012Z,0.58
2023-03-05T01:52:03.986Z,0.59
2023-03-05T01:53:03.988Z,0.59
2023-03-05T01:54:03.955Z,0.57
2023-03-05T01:55:03.943Z,0.58
2023-03-05T01:56:03.926Z,0.58
2023-03-05T01:57:03.993Z,0.58
2023-03-05T01:58:03.887Z,0.58
2023-03-05T01:59:03.882Z,0.57
2023-03-05T02:00:03.867Z,0.58
2023-03-05T02:01:03.922Z,0.58
2023-03-05T02:02:03.852Z,0.57
2023-03-05T02:03:03.850Z,0.57
2023-03-05T02:04:03.851Z,0.58
2023-03-05T02:05:03.798Z,0.58
2023-03-05T02:06:03.773Z,0.58
2023-03-05T03:02:02.837Z,0.56
2023-03-05T03:45:02.454Z,0.57
2023-03-05T03:47:02.267Z,0.58
2023-03-05T03:49:02.229Z,0.58
2023-03-05T03:50:02.204Z,0.58
2023-03-05T03:51:02.197Z,0.58
2023-03-05T03:53:02.181Z,0.57
2023-03-05T03:54:02.214Z,0.57
2023-03-05T03:55:02.151Z,0.57
2023-03-05T03:56:02.145Z,0.58
2023-03-05T03:57:02.128Z,0.58
2023-03-05T03:58:02.111Z,0.58
2023-03-05T03:59:02.091Z,0.57
2023-03-05T04:00:02.089Z,0.58
2023-03-05T04:01:02.067Z,0.57
2023-03-05T04:02:02.051Z,0.58
2023-03-05T04:03:02.048Z,0.57
2023-03-05T04:04:02.052Z,0.56
2023-03-05T04:05:02.022Z,0.57
2023-03-05T04:06:01.998Z,0.58
2023-03-05T04:07:01.997Z,0.58
2023-03-05T04:08:01.984Z,0.58
2023-03-05T04:09:01.965Z,0.58
2023-03-05T04:10:01.957Z,0.58
2023-03-05T04:11:01.945Z,0.58
2023-03-05T04:12:01.933Z,0.58
2023-03-05T04:13:01.910Z,0.57
2023-03-05T04:14:01.909Z,0.58
2023-03-05T04:15:01.902Z,0.57
2023-03-05T04:16:01.925Z,0.58
2023-03-05T04:17:01.872Z,0.57
2023-03-05T04:18:01.852Z,0.58
2023-03-05T04:19:01.848Z,0.58
2023-03-05T04:20:01.824Z,0.58
2023-03-05T04:21:01.816Z,0.58
2023-03-05T04:22:01.829Z,0.58
2023-03-05T04:23:01.796Z,0.58
2023-03-05T04:24:01.803Z,0.58
2023-03-05T04:25:01.779Z,0.57
2023-03-05T04:26:01.751Z,0.57
2023-03-05T04:27:01.759Z,0.57
2023-03-05T04:28:01.719Z,0.58
2023-03-05T04:29:01.716Z,0.57
2023-03-05T04:30:01.705Z,0.58
2023-03-05T04:31:01.729Z,0.57
2023-03-05T04:32:01.707Z,0.57
2023-03-05T04:33:01.650Z,0.58
2023-03-05T04:34:01.635Z,0.57
2023-03-05T04:35:01.627Z,0.58
2023-03-05T04:36:01.623Z,0.57
2023-03-05T04:37:01.604Z,0.56
2023-03-05T04:38:01.586Z,0.57
2023-03-05T04:39:01.573Z,0.58
2023-03-05T04:40:01.570Z,0.58
2023-03-05T04:41:01.572Z,0.56
2023-03-05T04:42:01.538Z,0.58
2023-03-05T04:43:01.531Z,0.56
2023-03-05T04:44:01.504Z,0.56
2023-03-05T04:45:01.544Z,0.57
2023-03-05T04:46:01.496Z,0.57
2023-03-05T04:47:01.468Z,0.57
2023-03-05T04:48:01.442Z,0.58
2023-03-05T04:49:01.429Z,0.57
2023-03-05T04:50:01.425Z,0.57
2023-03-05T04:51:01.385Z,0.57
2023-03-05T04:52:01.374Z,0.57
2023-03-05T04:53:01.386Z,0.57
2023-03-05T04:54:01.330Z,0.57
2023-03-05T04:55:01.326Z,0.57
2023-03-05T04:56:01.289Z,0.57
2023-03-05T04:57:01.265Z,0.57
2023-03-05T04:58:01.256Z,0.57
2023-03-05T04:59:01.219Z,0.57
2023-03-05T05:00:01.202Z,0.56
2023-03-05T05:01:01.189Z,0.56
2023-03-05T05:02:01.204Z,0.56
2023-03-05T05:03:01.202Z,0.57
2023-03-05T05:04:01.118Z,0.58
2023-03-05T05:05:01.120Z,0.57
2023-03-05T05:06:01.087Z,0.59
2023-03-05T05:07:01.071Z,0.57
2023-03-05T05:08:01.058Z,0.57
2023-03-05T05:09:01.085Z,0.57
2023-03-05T05:10:01.039Z,0.58
2023-03-05T05:11:01.013Z,0.57
2023-03-05T05:12:01.018Z,0.57
2023-03-05T05:13:00.993Z,0.57
2023-03-05T05:14:00.975Z,0.57
2023-03-05T05:15:00.973Z,0.57
2023-03-05T05:16:00.970Z,0.57
2023-03-05T05:17:00.938Z,0.57
2023-03-05T05:18:00.913Z,0.57
2023-03-05T05:19:00.984Z,0.57
2023-03-05T05:20:00.886Z,0.57
2023-03-05T05:21:00.877Z,0.56
2023-03-05T05:22:00.855Z,0.56
2023-03-05T05:23:00.841Z,0.58
2023-03-05T05:24:00.828Z,0.57
2023-03-05T05:25:00.835Z,0.57
2023-03-05T05:26:00.801Z,0.56
2023-03-05T05:27:00.793Z,0.57
2023-03-05T05:28:00.772Z,0.56
2023-03-05T05:29:00.790Z,0.57
2023-03-05T05:30:00.767Z,0.57
2023-03-05T05:31:00.760Z,0.57
2023-03-05T05:32:00.771Z,0.57
2023-03-05T05:33:00.718Z,0.57
2023-03-05T05:34:00.703Z,0.58
2023-03-05T05:35:00.746Z,0.57
2023-03-05T05:36:00.722Z,0.57
2023-03-05T05:37:00.668Z,0.57
2023-03-05T05:38:00.648Z,0.56
2023-03-05T05:39:00.635Z,0.57
2023-03-05T05:40:00.612Z,0.57
2023-03-05T05:41:00.617Z,0.57
2023-03-05T05:42:00.590Z,0.57
2023-03-05T05:43:00.578Z,0.57
2023-03-05T05:44:00.567Z,0.57
2023-03-05T05:45:00.560Z,0.57
2023-03-05T05:46:00.679Z,0.57
2023-03-05T05:47:00.541Z,0.56
2023-03-05T05:48:00.520Z,0.57
2023-03-05T05:49:00.536Z,0.56
2023-03-05T05:50:00.519Z,0.58
2023-03-05T05:51:00.505Z,0.56
2023-03-05T05:52:00.498Z,0.57
2023-03-05T05:53:00.485Z,0.56
2023-03-05T05:54:00.469Z,0.57
2023-03-05T05:55:00.460Z,0.57
2023-03-05T05:56:00.466Z,0.57
2023-03-05T05:57:00.443Z,0.56
2023-03-05T05:58:00.444Z,0.58
2023-03-05T05:59:00.432Z,0.56
2023-03-05T06:00:00.433Z,0.57
2023-03-05T06:01:00.403Z,0.57
2023-03-05T06:02:00.427Z,0.55
2023-03-05T06:03:00.430Z,0.56
2023-03-05T06:04:00.357Z,0.57
2023-03-05T06:05:00.347Z,0.57
2023-03-05T06:06:00.353Z,0.57
2023-03-05T06:07:00.316Z,0.56
2023-03-05T06:08:00.308Z,0.56
2023-03-05T06:09:00.289Z,0.57
2023-03-05T06:10:00.280Z,0.56
2023-03-05T06:11:00.256Z,0.57
2023-03-05T06:12:00.256Z,0.57
2023-03-05T06:13:00.235Z,0.57
2023-03-05T06:14:00.232Z,0.57
2023-03-05T06:15:00.221Z,0.57
2023-03-05T06:16:00.195Z,0.56
2023-03-05T06:17:00.172Z,0.57
2023-03-05T06:18:00.154Z,0.57
2023-03-05T06:19:00.137Z,0.56
2023-03-05T06:20:00.152Z,0.56
2023-03-05T06:21:00.115Z,0.57
2023-03-05T06:22:00.142Z,0.56
2023-03-05T06:23:00.115Z,0.57
2023-03-05T06:24:00.109Z,0.56
2023-03-05T06:25:00.058Z,0.58
2023-03-05T06:26:00.094Z,0.56
2023-03-05T06:27:00.038Z,0.56
2023-03-05T06:28:00.024Z,0.56
2023-03-05T06:29:00.015Z,0.56
2023-03-05T06:29:59.997Z,0.56
2023-03-05T06:31:00.048Z,0.56
2023-03-05T06:32:00.066Z,0.55
2023-03-05T06:32:59.956Z,0.56
2023-03-05T06:33:59.949Z,0.56
2023-03-05T06:34:59.957Z,0.57
2023-03-05T06:36:00.038Z,0.57
2023-03-05T06:36:59.931Z,0.57
2023-03-05T06:37:59.927Z,0.57
2023-03-05T06:38:59.897Z,0.57
2023-03-05T06:39:59.895Z,0.57
2023-03-05T06:40:59.885Z,0.56
2023-03-05T06:41:59.888Z,0.56
2023-03-05T06:42:59.863Z,0.56
2023-03-05T06:43:59.853Z,0.58
2023-03-05T06:44:59.833Z,0.57
2023-03-05T06:45:59.890Z,0.56
2023-03-05T06:46:59.805Z,0.56
2023-03-05T06:47:59.797Z,0.56
2023-03-05T06:48:59.784Z,0.57
2023-03-05T06:49:59.766Z,0.56
2023-03-05T06:50:59.748Z,0.56
2023-03-05T06:51:59.735Z,0.56
2023-03-05T06:52:59.715Z,0.56
2023-03-05T06:53:59.710Z,0.56
2023-03-05T06:54:59.688Z,0.56
2023-03-05T06:55:59.668Z,0.56
2023-03-05T06:56:59.650Z,0.56
2023-03-05T06:57:59.650Z,0.56
2023-03-05T06:58:59.618Z,0.56
2023-03-05T06:59:59.593Z,0.57
2023-03-05T07:00:59.580Z,0.56
2023-03-05T07:01:59.561Z,0.56
2023-03-05T07:02:59.546Z,0.56
2023-03-05T07:03:59.563Z,0.56
2023-03-05T07:04:59.528Z,0.56
2023-03-05T08:57:57.753Z,0.54
2023-03-05T08:58:57.740Z,0.54
2023-03-05T08:59:57.729Z,0.55
2023-03-05T09:00:57.703Z,0.55
2023-03-05T09:01:57.734Z,0.54
2023-03-05T09:02:57.731Z,0.55
2023-03-05T09:03:57.683Z,0.55
2023-03-05T09:04:57.671Z,0.54
2023-03-05T09:05:57.640Z,0.54
2023-03-05T09:06:57.644Z,0.54
2023-03-05T09:07:57.618Z,0.55
2023-03-05T09:08:57.593Z,0.55
2023-03-05T09:09:57.590Z,0.55
2023-03-05T09:10:57.570Z,0.55
2023-03-05T09:11:57.562Z,0.54
2023-03-05T09:12:57.514Z,0.54
2023-03-05T09:13:57.511Z,0.54
2023-03-05T09:14:57.493Z,0.55
2023-03-05T09:15:57.505Z,0.54
2023-03-05T09:16:57.446Z,0.54
2023-03-05T09:17:57.416Z,0.54
2023-03-05T09:18:57.415Z,0.54
2023-03-05T09:19:57.406Z,0.55
2023-03-05T09:20:57.344Z,0.55
2023-03-05T09:21:57.339Z,0.54
2023-03-05T09:22:57.298Z,0.55
2023-03-05T09:23:57.275Z,0.56
2023-03-05T09:24:57.246Z,0.55
2023-03-05T09:25:57.227Z,0.55
2023-03-05T09:26:57.192Z,0.55
2023-03-05T09:27:57.162Z,0.55
2023-03-05T09:28:57.143Z,0.55
2023-03-05T09:29:57.116Z,0.55
2023-03-05T09:30:57.091Z,0.56
2023-03-05T09:31:57.150Z,0.55
2023-03-05T09:32:57.053Z,0.56
2023-03-05T09:33:57.014Z,0.56
2023-03-05T09:34:56.977Z,0.56
2023-03-05T09:35:56.992Z,0.55
2023-03-05T09:36:56.915Z,0.56
2023-03-05T09:37:56.890Z,0.56
2023-03-05T09:38:56.860Z,0.56
2023-03-05T09:39:56.839Z,0.56
2023-03-05T09:40:56.805Z,0.55
2023-03-05T09:41:56.784Z,0.56
2023-03-05T09:42:56.762Z,0.56
2023-03-05T09:43:56.743Z,0.56
2023-03-05T09:44:56.757Z,0.56
2023-03-05T09:45:56.827Z,0.56
2023-03-05T09:46:56.661Z,0.55
2023-03-05T09:47:56.654Z,0.54
2023-03-05T09:48:56.625Z,0.55
2023-03-05T09:49:56.593Z,0.56
2023-03-05T09:50:56.562Z,0.54
2023-03-05T09:51:56.533Z,0.54
2023-03-05T09:52:56.503Z,0.54
2023-03-05T09:53:56.488Z,0.54
2023-03-05T09:54:56.494Z,0.55
2023-03-05T09:55:56.420Z,0.54
2023-03-05T09:56:56.410Z,0.54
2023-03-05T09:57:56.365Z,0.54
2023-03-05T09:58:56.373Z,0.54
2023-03-05T09:59:56.308Z,0.54
2023-03-05T10:00:56.288Z,0.54
2023-03-05T10:01:56.244Z,0.53
2023-03-05T10:02:56.256Z,0.54
2023-03-05T10:03:56.248Z,0.54
2023-03-05T10:04:56.164Z,0.54
2023-03-05T10:05:56.145Z,0.54
2023-03-05T10:06:56.108Z,0.54
2023-03-05T10:07:56.078Z,0.53
2023-03-05T10:08:56.057Z,0.54
2023-03-05T10:09:56.045Z,0.53
2023-03-05T10:10:56.038Z,0.54
2023-03-05T10:11:55.994Z,0.53
2023-03-05T10:12:55.948Z,0.54
2023-03-05T10:13:55.929Z,0.52
2023-03-05T10:14:55.893Z,0.52
2023-03-05T10:15:55.854Z,0.54
2023-03-05T10:16:55.929Z,0.54
2023-03-05T10:17:55.808Z,0.53
2023-03-05T10:18:55.786Z,0.53
2023-03-05T10:19:56.196Z,0.53
2023-03-05T10:20:55.727Z,0.52
2023-03-05T10:21:55.688Z,0.52
2023-03-05T10:22:55.667Z,0.52
2023-03-05T10:23:55.635Z,0.52
2023-03-05T10:24:55.611Z,0.50
2023-03-05T10:25:55.592Z,0.51
2023-03-05T10:26:55.604Z,0.51
2023-03-05T10:27:55.523Z,0.52
2023-03-05T10:28:55.493Z,0.51
2023-03-05T10:29:55.475Z,0.52
2023-03-05T10:30:55.442Z,0.51
2023-03-05T10:31:55.429Z,0.51
2023-03-05T10:32:55.391Z,0.52
2023-03-05T10:33:55.355Z,0.50
2023-03-05T10:34:55.330Z,0.52
2023-03-05T12:08:52.535Z,0.51
2023-03-05T12:09:52.565Z,0.51
2023-03-05T12:10:52.475Z,0.51
2023-03-05T12:11:52.459Z,0.51
2023-03-05T12:12:52.419Z,0.51
2023-03-05T12:13:52.373Z,0.50
2023-03-05T12:14:52.359Z,0.52
2023-03-05T12:15:52.325Z,0.52
2023-03-05T12:16:52.293Z,0.51
2023-03-05T12:17:52.263Z,0.51
2023-03-05T12:18:52.244Z,0.51
2023-03-05T12:19:52.199Z,0.51
2023-03-05T12:20:52.180Z,0.51
2023-03-05T12:21:52.139Z,0.51
2023-03-05T12:22:52.097Z,0.51
2023-03-05T12:23:52.051Z,0.51
2023-03-05T12:24:52.015Z,0.51
2023-03-05T12:25:52.000Z,0.51
2023-03-05T12:26:51.949Z,0.51
2023-03-05T12:27:51.916Z,0.52
2023-03-05T12:28:51.906Z,0.51
2023-03-05T12:29:51.851Z,0.52
2023-03-05T12:30:51.836Z,0.52
2023-03-05T12:31:51.807Z,0.51
2023-03-05T12:32:51.746Z,0.51
2023-03-05T12:33:51.711Z,0.51
2023-03-05T12:34:51.677Z,0.52
2023-03-05T12:35:51.721Z,0.50
2023-03-05T12:36:51.618Z,0.50
2023-03-05T12:37:51.585Z,0.51
2023-03-05T12:38:51.567Z,0.51
2023-03-05T12:39:51.515Z,0.51
2023-03-05T12:40:51.480Z,0.51
2023-03-05T12:41:51.447Z,0.51
2023-03-05T12:42:51.404Z,0.51
2023-03-05T12:43:51.363Z,0.51
2023-03-05T12:44:51.329Z,0.52
2023-03-05T12:45:51.304Z,0.51
2023-03-05T12:46:51.276Z,0.51
2023-03-05T12:47:51.232Z,0.51
2023-03-05T12:48:51.215Z,0.52
2023-03-05T12:49:51.159Z,0.52
2023-03-05T12:50:51.124Z,0.52
2023-03-05T12:51:51.091Z,0.51
2023-03-05T12:52:51.061Z,0.51
2023-03-05T12:53:51.027Z,0.51
2023-03-05T12:54:50.996Z,0.51
2023-03-05T12:55:50.956Z,0.52
2023-03-05T12:56:50.928Z,0.52
2023-03-05T12:57:50.884Z,0.51
2023-03-05T12:58:50.850Z,0.51
2023-03-05T12:59:50.815Z,0.52
2023-03-05T13:00:50.822Z,0.52
2023-03-05T13:01:50.753Z,0.52
2023-03-05T13:02:50.713Z,0.52
2023-03-05T13:03:50.787Z,0.51
2023-03-05T13:04:50.655Z,0.51
2023-03-05T13:05:50.629Z,0.51
2023-03-05T13:06:50.597Z,0.51
2023-03-05T13:07:50.578Z,0.51
2023-03-05T13:08:50.540Z,0.51
2023-03-05T13:09:50.511Z,0.52
2023-03-05T13:10:50.486Z,0.51
2023-03-05T13:11:50.512Z,0.51
2023-03-05T13:12:50.463Z,0.51
2023-03-05T13:13:50.469Z,0.52
2023-03-05T13:14:50.394Z,0.52
2023-03-05T13:15:50.369Z,0.51
2023-03-05T13:16:50.339Z,0.52
2023-03-05T13:17:50.346Z,0.53
2023-03-05T13:18:50.326Z,0.52
2023-03-05T13:19:50.253Z,0.51
2023-03-05T13:20:50.228Z,0.51
2023-03-05T13:21:50.192Z,0.52
2023-03-05T13:22:50.163Z,0.52
2023-03-05T13:23:50.137Z,0.52
2023-03-05T13:24:50.110Z,0.52
2023-03-05T13:25:50.071Z,0.53
2023-03-05T13:26:50.048Z,0.52
2023-03-05T13:27:50.028Z,0.52
2023-03-05T13:28:49.980Z,0.51
2023-03-05T13:29:49.960Z,0.51
2023-03-05T13:30:49.923Z,0.51
2023-03-05T13:31:49.912Z,0.52
2023-03-05T13:32:49.865Z,0.52
2023-03-05T13:33:49.828Z,0.52
2023-03-05T13:34:49.819Z,0.52
2023-03-05T13:35:50.007Z,0.53
2023-03-05T13:36:49.760Z,0.52
2023-03-05T13:37:49.850Z,0.52
2023-03-05T13:38:49.702Z,0.52
2023-03-05T13:39:49.668Z,0.52
2023-03-05T13:40:49.625Z,0.53
2023-03-05T13:41:49.593Z,0.52
2023-03-05T13:42:49.561Z,0.53
2023-03-05T13:43:49.543Z,0.52
2023-03-05T13:44:49.494Z,0.52
2023-03-05T13:45:49.510Z,0.52
2023-03-05T13:46:49.413Z,0.52
2023-03-05T13:47:49.382Z,0.52
2023-03-05T13:48:49.355Z,0.52
2023-03-05T13:49:49.316Z,0.52
2023-03-05T13:50:49.299Z,0.52
2023-03-05T13:51:49.255Z,0.52
2023-03-05T13:52:49.208Z,0.53
2023-03-05T13:53:49.173Z,0.52
2023-03-05T13:54:49.138Z,0.52
2023-03-05T13:55:49.104Z,0.53
2023-03-05T13:56:49.082Z,0.53
2023-03-05T13:57:49.082Z,0.52
2023-03-05T13:58:49.016Z,0.52
2023-03-05T13:59:48.955Z,0.52
2023-03-05T14:00:48.940Z,0.53
2023-03-05T14:01:48.880Z,0.53
2023-03-05T14:02:48.881Z,0.52
2023-03-05T14:03:48.815Z,0.52
2023-03-05T14:04:48.813Z,0.53
2023-03-05T14:05:48.745Z,0.53
2023-03-05T14:06:48.699Z,0.53
2023-03-05T14:07:48.672Z,0.52
2023-03-05T14:08:48.625Z,0.53
2023-03-05T14:09:48.610Z,0.52
2023-03-05T14:10:48.531Z,0.52
2023-03-05T14:11:48.498Z,0.53
2023-03-05T14:12:48.458Z,0.52
2023-03-05T14:13:48.438Z,0.53
2023-03-05T14:14:48.383Z,0.53
2023-03-05T14:15:48.351Z,0.54
2023-03-05T14:16:48.366Z,0.53
2023-03-05T14:17:48.292Z,0.52
2023-03-05T14:18:48.258Z,0.53
2023-03-05T14:19:48.208Z,0.53
2023-03-05T14:20:48.182Z,0.52
2023-03-05T14:21:48.177Z,0.53
2023-03-05T14:22:48.166Z,0.52
2023-03-05T14:23:48.061Z,0.53
2023-03-05T15:00:46.611Z,0.53
2023-03-05T15:01:46.675Z,0.53
2023-03-05T15:02:46.588Z,0.53
2023-03-05T15:03:46.502Z,0.53
2023-03-05T15:04:46.466Z,0.53
2023-03-05T15:05:46.438Z,0.55
2023-03-05T15:06:46.404Z,0.54
2023-03-05T15:07:46.366Z,0.54
2023-03-05T15:08:46.367Z,0.54
2023-03-05T15:09:46.338Z,0.53
2023-03-05T15:10:46.275Z,0.54
2023-03-05T15:11:46.223Z,0.53
2023-03-05T15:12:46.197Z,0.54
2023-03-05T15:13:46.148Z,0.55
2023-03-05T15:14:46.112Z,0.54
2023-03-05T15:15:46.164Z,0.53
2023-03-05T15:16:46.039Z,0.53
2023-03-05T15:17:46.018Z,0.54
2023-03-05T15:18:45.983Z,0.53
2023-03-05T15:19:45.954Z,0.54
2023-03-05T15:20:45.904Z,0.53
2023-03-05T15:21:45.882Z,0.53
2023-03-05T15:22:45.835Z,0.53
2023-03-05T15:23:45.803Z,0.52
2023-03-05T15:24:45.780Z,0.53
2023-03-05T15:25:45.745Z,0.52
2023-03-05T15:26:45.692Z,0.53
2023-03-05T15:27:45.673Z,0.53
2023-03-05T15:28:45.631Z,0.54
2023-03-05T15:29:45.583Z,0.53
2023-03-05T15:30:45.593Z,0.53
2023-03-05T15:31:45.525Z,0.53
2023-03-05T15:32:45.488Z,0.54
2023-03-05T15:33:45.453Z,0.53
2023-03-05T15:34:45.414Z,0.54
2023-03-05T15:35:45.422Z,0.52
2023-03-05T15:36:45.346Z,0.52
2023-03-05T18:54:39.894Z,0.56
2023-03-05T18:55:39.888Z,0.56
2023-03-05T18:56:39.856Z,0.57
2023-03-05T18:57:39.820Z,0.56
2023-03-05T18:58:39.802Z,0.55
2023-03-05T18:59:39.763Z,0.56
2023-03-05T19:00:39.743Z,0.55
2023-03-05T19:01:39.818Z,0.56
2023-03-05T19:02:39.710Z,0.55
2023-03-05T19:03:39.676Z,0.55
2023-03-05T19:04:39.691Z,0.55
2023-03-05T19:05:39.632Z,0.56
2023-03-05T19:06:39.602Z,0.56
2023-03-05T19:07:39.657Z,0.57
2023-03-05T19:08:39.579Z,0.56
2023-03-05T19:09:39.537Z,0.56
2023-03-05T19:10:39.515Z,0.56
2023-03-05T19:11:39.481Z,0.56
2023-03-05T19:12:39.466Z,0.57
2023-03-05T19:13:39.491Z,0.57
2023-03-05T19:14:39.417Z,0.56
2023-03-05T19:15:39.398Z,0.57
2023-03-05T19:16:39.390Z,0.56
2023-03-05T19:17:39.356Z,0.56
2023-03-05T19:18:39.330Z,0.57
2023-03-05T19:19:39.325Z,0.57
2023-03-05T19:20:39.281Z,0.57
2023-03-05T19:21:39.256Z,0.56
2023-03-05T19:22:39.235Z,0.56
2023-03-05T19:23:39.204Z,0.57
2023-03-05T19:24:39.216Z,0.57
2023-03-05T19:25:39.186Z,0.56
2023-03-05T19:26:39.149Z,0.56
2023-03-05T19:27:39.138Z,0.57
2023-03-05T19:28:39.107Z,0.57
2023-03-05T19:29:39.095Z,0.56
2023-03-05T19:30:39.086Z,0.56
2023-03-05T19:31:39.039Z,0.56
2023-03-05T19:32:39.153Z,0.55
2023-03-05T19:33:39.009Z,0.56
2023-03-05T19:34:38.987Z,0.56
2023-03-05T19:35:38.990Z,0.57
2023-03-05T19:36:38.961Z,0.55
2023-03-05T19:37:38.918Z,0.56
2023-03-05T19:38:38.906Z,0.57
2023-03-05T19:39:38.871Z,0.57
2023-03-05T19:40:38.856Z,0.57
2023-03-05T19:41:38.844Z,0.56
2023-03-05T19:42:38.811Z,0.56
2023-03-05T19:43:38.796Z,0.56
2023-03-05T19:44:38.782Z,0.57
2023-03-05T19:45:38.763Z,0.57
2023-03-05T19:46:38.755Z,0.57
2023-03-05T19:47:38.712Z,0.57
2023-03-05T19:48:38.688Z,0.57
2023-03-05T19:49:38.686Z,0.57
2023-03-05T19:50:38.659Z,0.57
2023-03-05T19:51:38.630Z,0.56
2023-03-05T19:52:38.618Z,0.57
2023-03-05T19:53:38.601Z,0.57
2023-03-05T19:54:38.630Z,0.57
2023-03-05T19:55:38.552Z,0.56
2023-03-05T19:56:38.542Z,0.56
2023-03-05T19:57:38.503Z,0.57
2023-03-05T19:58:38.510Z,0.56
2023-03-05T19:59:38.473Z,0.56
2023-03-05T20:00:38.479Z,0.56
2023-03-05T20:01:38.461Z,0.57
2023-03-05T20:02:38.414Z,0.56
2023-03-05T20:03:38.391Z,0.57
2023-03-05T20:04:38.374Z,0.56
2023-03-05T20:05:38.356Z,0.56
2023-03-05T20:06:38.335Z,0.56
2023-03-05T20:07:38.311Z,0.57
2023-03-05T20:08:38.284Z,0.56
2023-03-05T20:09:38.292Z,0.56
2023-03-05T20:10:38.261Z,0.56
2023-03-05T20:11:38.218Z,0.56
2023-03-05T20:12:38.215Z,0.56
2023-03-05T20:13:38.189Z,0.57
2023-03-05T20:14:38.163Z,0.56
2023-03-05T20:15:38.156Z,0.56
2023-03-05T20:16:38.134Z,0.56
2023-03-05T20:17:38.092Z,0.56
2023-03-05T20:18:38.082Z,0.56
2023-03-05T20:19:38.065Z,0.56
2023-03-05T20:20:38.067Z,0.56
2023-03-05T20:21:38.033Z,0.56
2023-03-05T20:22:38.061Z,0.56
2023-03-05T20:23:37.998Z,0.56
2023-03-05T20:24:37.973Z,0.56
2023-03-05T20:25:37.948Z,0.56
2023-03-05T20:26:37.931Z,0.56
2023-03-05T20:27:37.890Z,0.56
2023-03-05T20:28:37.871Z,0.56
2023-03-05T20:29:37.841Z,0.56
2023-03-05T20:30:37.818Z,0.56
2023-03-05T20:31:37.844Z,0.57
2023-03-05T20:32:37.847Z,0.56
2023-03-05T20:33:37.739Z,0.56
2023-03-05T20:34:37.700Z,0.56
2023-03-05T20:35:37.736Z,0.56
2023-03-05T20:36:37.655Z,0.56
2023-03-05T20:37:37.620Z,0.56
2023-03-05T20:38:37.616Z,0.56
2023-03-05T20:39:37.592Z,0.56
2023-03-05T20:40:37.573Z,0.56
2023-03-05T20:41:37.538Z,0.56
2023-03-05T20:42:37.532Z,0.56
2023-03-05T20:43:37.491Z,0.56
2023-03-05T20:44:37.493Z,0.56
2023-03-05T20:45:37.431Z,0.56
2023-03-05T20:46:37.492Z,0.55
2023-03-05T20:47:37.400Z,0.56
2023-03-05T20:48:37.348Z,0.56
2023-03-05T20:49:37.336Z,0.56
2023-03-05T20:50:37.305Z,0.56
2023-03-05T20:51:37.281Z,0.56
2023-03-05T20:52:37.253Z,0.56
2023-03-05T20:53:37.243Z,0.56
2023-03-05T20:54:37.267Z,0.56
2023-03-05T20:55:37.193Z,0.56
2023-03-05T20:56:37.178Z,0.56
2023-03-05T20:57:37.142Z,0.56
2023-03-05T20:58:37.122Z,0.56
2023-03-05T20:59:37.120Z,0.56
2023-03-05T21:00:37.125Z,0.56
2023-03-05T21:01:37.122Z,0.56
2023-03-05T21:02:37.052Z,0.56
2023-03-05T21:03:37.025Z,0.55
2023-03-05T21:04:37.028Z,0.56
2023-03-05T21:05:36.984Z,0.56
2023-03-05T21:06:36.984Z,0.56
2023-03-05T21:07:36.940Z,0.56
2023-03-05T21:08:36.931Z,0.56
2023-03-05T21:09:36.913Z,0.56
2023-03-05T21:10:36.894Z,0.56
2023-03-05T21:11:36.882Z,0.55
2023-03-05T21:12:36.850Z,0.55
2023-03-05T21:13:36.827Z,0.55
2023-03-05T21:14:36.809Z,0.55
2023-03-05T21:15:36.796Z,0.55
2023-03-05T21:16:36.810Z,0.55
2023-03-05T21:17:36.743Z,0.55
2023-03-05T21:18:36.711Z,0.55
2023-03-05T21:19:36.688Z,0.55
2023-03-05T21:20:36.661Z,0.55
2023-03-05T21:21:36.635Z,0.55
2023-03-05T21:22:36.608Z,0.55
2023-03-05T21:23:36.585Z,0.55
2023-03-05T21:24:36.563Z,0.55
2023-03-05T21:25:36.529Z,0.55
2023-03-05T21:26:36.522Z,0.55
2023-03-05T21:27:36.513Z,0.56
2023-03-05T21:28:36.478Z,0.56
2023-03-05T21:29:36.460Z,0.55
2023-03-05T21:30:36.438Z,0.55
2023-03-05T21:31:36.453Z,0.55
2023-03-05T21:32:36.445Z,0.55
2023-03-05T21:33:36.391Z,0.55
2023-03-05T21:34:36.324Z,0.55
2023-03-05T21:35:36.348Z,0.55
2023-03-05T21:36:36.329Z,0.55
2023-03-05T21:37:36.248Z,0.55
2023-03-05T21:38:36.240Z,0.55
2023-03-05T21:39:36.220Z,0.55
2023-03-05T21:40:36.188Z,0.54
2023-03-05T21:41:36.156Z,0.54
2023-03-05T21:42:36.129Z,0.55
2023-03-05T21:43:36.107Z,0.54
2023-03-05T21:44:36.090Z,0.55
2023-03-05T21:45:36.106Z,0.55
2023-03-05T21:46:36.024Z,0.55
2023-03-05T21:47:35.993Z,0.54
2023-03-05T21:48:35.966Z,0.54
2023-03-05T21:49:35.959Z,0.55
2023-03-05T21:50:35.926Z,0.55
2023-03-05T21:51:35.894Z,0.55
2023-03-05T21:52:35.875Z,0.54
2023-03-05T21:53:35.836Z,0.55
2023-03-05T21:54:35.830Z,0.55
2023-03-05T21:55:35.802Z,0.55
2023-03-05T21:56:35.766Z,0.55
2023-03-05T21:57:35.743Z,0.55
2023-03-05T21:58:35.725Z,0.55
2023-03-05T21:59:35.697Z,0.54
2023-03-05T22:00:35.663Z,0.55
2023-03-05T22:01:35.645Z,0.55
2023-03-05T22:02:35.626Z,0.54
2023-03-05T22:03:35.607Z,0.55
2023-03-05T22:04:35.575Z,0.54
2023-03-05T22:05:35.533Z,0.54
2023-03-05T22:06:35.512Z,0.54
2023-03-05T22:07:35.496Z,0.55
2023-03-05T22:08:35.472Z,0.55
2023-03-05T22:09:35.443Z,0.55
2023-03-05T22:10:35.418Z,0.54
2023-03-05T22:11:35.397Z,0.54
2023-03-05T22:12:35.396Z,0.55
2023-03-05T22:13:35.385Z,0.54
2023-03-05T22:14:35.347Z,0.54
